Virgil, KS (66870)

2:32 AM CDT on July 03, 2015 (GMT -0500)
Buffalo | | Change Station
CLOSE
Current Station
Personal Weather Station
Location: Yates Center, KS
Elevation: 935 ft
Nearby Weather Stations

Elev 935 ft 37.76 °N, 95.74 °W | Updated 4 minutes ago

Partly Cloudy
Partly Cloudy
68.0 °F
Feels Like 68.0 °F
N
0.0
Wind Variable Wind from ENE

Today
High -- | Low -- °F
--% Chance of Precip.
Yesterday
High -- | Low -- °F
Precip. -- in
6:06 AM 8:50 PM
Full, 98% visible
Pressure 29.89 in
Visibility 10.0 miles
Clouds Few 3200 ft
Overcast 6500 ft
Dew Point 68 °F
Humidity 99%
Rainfall 0.00 in
Snow Depth Not available.
UV 0 out of 12
Pollen 4.00 out of 12
Air Quality Not available.
Flu Activity Not available.
METAR KEMP 030653Z AUTO 22004KT 10SM FEW032 OVC065 21/19 A2991 RMK AO2 LTG DSNT NE AND E SLP120 T02060194

More Conditions Fewer Conditions

Pressure 29.89 in
Visibility 10.0 miles
Clouds Few 3200 ft
Overcast 6500 ft
Dew Point 68 °F
Humidity 99%
Rainfall 0.00 in
Snow Depth Not available.
UV 0 out of 12
Pollen 4.00 out of 12
Air Quality Not available.
Flu Activity Not available.
METAR KEMP 030653Z AUTO 22004KT 10SM FEW032 OVC065 21/19 A2991 RMK AO2 LTG DSNT NE AND E SLP120 T02060194

More Conditions Fewer Conditions

10-Day Weather Forecast

×

Almanac

Astronomy

Jul. 03, 2015 Rise Set
Actual Time
Civil Twilight
Nautical Twilight
Astronomical Twilight
Moon
Length of Visible Light
Length of Day
Tomorrow will be .
, % of the Moon is Illuminated

Today's Extremes

State Highs State Lows

Community

WunderPhotos

Upload Photos

1,834,634 photos uploaded!

WunderBlogs® & News

Nearby

Air Quality

  Air Quality AQ Index Pollutant
Not available.

Snow Depth

Station Depth Elevation

Earthquake Activity

City Distance Mag. Time & Date
Minimum magnitude displayed is 2.5.

Coastal Water Temperatures

Place Temperature

Stations

Nearby Weather Stations

Station Location Temp. Windchill Dew Point Humidity Wind Precip. Elev Updated Type